createdAt,value
2022-08-07T00:00:39.955Z,7.68
2022-08-07T00:05:43.476Z,9.30
2022-08-07T00:10:47.653Z,7.50
2022-08-07T00:15:51.051Z,8.13
2022-08-07T00:20:51.713Z,8.35
2022-08-07T00:26:00.009Z,8.57
2022-08-07T00:31:06.152Z,9.30
2022-08-07T00:36:06.510Z,8.20
2022-08-07T00:41:09.814Z,8.48
2022-08-07T00:46:08.575Z,8.52
2022-08-07T00:51:10.826Z,8.45
2022-08-07T00:56:14.045Z,7.85
2022-08-07T01:01:14.026Z,8.25
2022-08-07T01:06:13.176Z,8.32
2022-08-07T01:12:27.907Z,7.95
2022-08-07T01:16:43.285Z,7.80
2022-08-07T01:21:55.339Z,7.95
2022-08-07T01:27:00.409Z,7.85
2022-08-07T01:32:05.195Z,8.65
2022-08-07T01:37:09.611Z,8.45
2022-08-07T01:42:39.565Z,7.78
2022-08-07T01:48:18.955Z,8.27
2022-08-07T01:53:08.926Z,8.48
2022-08-07T01:58:27.195Z,8.25
2022-08-07T02:03:48.848Z,8.25
2022-08-07T02:08:54.957Z,8.55
2022-08-07T02:14:02.437Z,7.18
2022-08-07T02:20:05.371Z,8.93
2022-08-07T02:24:46.142Z,7.32
2022-08-07T02:29:54.232Z,8.35
2022-08-07T02:35:06.154Z,7.05
2022-08-07T02:40:30.995Z,7.13
2022-08-07T02:46:00.851Z,7.05
2022-08-07T02:50:58.015Z,7.75
2022-08-07T02:56:11.290Z,7.55
2022-08-07T03:01:19.067Z,7.43
2022-08-07T03:06:48.289Z,7.43
2022-08-07T03:11:52.705Z,8.00
2022-08-07T03:17:04.557Z,7.95
2022-08-07T03:22:08.239Z,7.53
2022-08-07T03:27:30.580Z,7.63
2022-08-07T03:32:58.427Z,7.90
2022-08-07T03:38:04.747Z,7.63
2022-08-07T03:43:13.831Z,7.75
2022-08-07T03:48:21.826Z,7.35
2022-08-07T03:53:50.167Z,8.77
2022-08-07T03:59:08.829Z,8.98
2022-08-07T04:04:06.396Z,8.88
2022-08-07T04:09:08.535Z,8.82
2022-08-07T04:14:38.143Z,9.30
2022-08-07T04:19:52.093Z,8.77
2022-08-07T04:25:02.215Z,8.88
2022-08-07T04:30:04.631Z,9.93
2022-08-07T04:35:16.509Z,10.13
2022-08-07T04:40:17.873Z,10.65
2022-08-07T04:45:44.551Z,10.57
2022-08-07T04:51:03.472Z,11.63
2022-08-07T04:58:12.541Z,11.70
2022-08-07T05:02:20.510Z,12.23
2022-08-07T05:07:51.686Z,11.00
2022-08-07T05:13:10.104Z,9.77
2022-08-07T05:18:22.256Z,9.98
2022-08-07T05:23:29.051Z,9.77
2022-08-07T05:28:34.003Z,9.75
2022-08-07T05:33:35.640Z,8.85
2022-08-07T05:39:01.171Z,9.07
2022-08-07T05:44:12.489Z,7.97
2022-08-07T05:49:16.532Z,7.75
2022-08-07T05:54:44.416Z,7.57
2022-08-07T05:59:57.251Z,7.93
2022-08-07T06:05:15.876Z,7.70
2022-08-07T06:10:19.061Z,7.68
2022-08-07T06:15:23.053Z,7.60
2022-08-07T06:22:15.984Z,8.00
2022-08-07T06:26:15.132Z,7.70
2022-08-07T06:31:14.663Z,8.20
2022-08-07T06:36:15.048Z,7.15
2022-08-07T06:42:01.063Z,7.32
2022-08-07T06:47:27.643Z,8.27
2022-08-07T06:52:41.471Z,7.57
2022-08-07T06:57:49.997Z,8.48
2022-08-07T07:02:58.247Z,8.30
2022-08-07T07:08:07.292Z,8.20
2022-08-07T07:13:56.291Z,7.07
2022-08-07T07:18:52.787Z,7.60
2022-08-07T07:24:05.488Z,6.80
2022-08-07T07:29:57.151Z,7.55
2022-08-07T07:34:52.230Z,7.18
2022-08-07T07:39:55.413Z,7.82
2022-08-07T07:44:55.757Z,7.97
2022-08-07T07:50:33.578Z,7.00
2022-08-07T07:55:37.797Z,7.43
2022-08-07T08:00:45.747Z,7.80
2022-08-07T08:05:54.892Z,8.13
2022-08-07T08:11:00.064Z,6.68
2022-08-07T08:16:01.533Z,6.75
2022-08-07T08:21:04.611Z,7.68
2022-08-07T08:26:35.711Z,7.40
2022-08-07T08:32:18.190Z,7.57
2022-08-07T08:37:09.985Z,7.03
2022-08-07T08:42:43.702Z,6.97
2022-08-07T08:48:11.435Z,7.35
2022-08-07T08:53:30.982Z,7.88
2022-08-07T08:58:36.501Z,7.63
2022-08-07T09:03:49.462Z,7.65
2022-08-07T09:09:13.481Z,7.25
2022-08-07T09:14:27.530Z,7.13
2022-08-07T09:19:55.180Z,6.60
2022-08-07T09:25:17.376Z,6.60
2022-08-07T09:30:20.732Z,6.93
2022-08-07T09:36:04.742Z,6.88
2022-08-07T09:42:02.921Z,5.68
2022-08-07T09:47:49.711Z,6.10
2022-08-07T09:52:55.364Z,6.82
2022-08-07T09:58:32.163Z,6.43
2022-08-07T10:04:14.407Z,6.70
2022-08-07T10:10:00.876Z,6.88
2022-08-07T10:15:18.538Z,6.45
2022-08-07T10:20:55.106Z,6.47
2022-08-07T10:26:07.168Z,6.30
2022-08-07T10:31:50.890Z,6.32
2022-08-07T10:37:59.944Z,5.50
2022-08-07T10:43:01.723Z,5.50
2022-08-07T10:48:19.666Z,4.80
2022-08-07T10:53:26.750Z,5.70
2022-08-07T10:58:56.728Z,5.93
2022-08-07T11:04:31.384Z,5.10
2022-08-07T11:10:07.107Z,5.25
2022-08-07T11:15:09.590Z,5.20
2022-08-07T11:20:24.717Z,5.65
2022-08-07T11:25:42.523Z,5.68
2022-08-07T11:31:48.127Z,5.53
2022-08-07T11:37:14.072Z,4.50
2022-08-07T11:49:28.564Z,4.68
2022-08-07T11:54:25.461Z,4.55
2022-08-07T12:00:12.226Z,3.92
2022-08-07T12:05:40.981Z,3.80
2022-08-07T12:11:00.774Z,3.92
2022-08-07T12:16:32.126Z,4.20
2022-08-07T12:22:39.310Z,3.83
2022-08-07T12:27:27.709Z,3.50
2022-08-07T12:32:56.153Z,4.75
2022-08-07T12:38:08.975Z,4.45
2022-08-07T12:44:02.975Z,4.50
2022-08-07T12:48:57.403Z,4.25
2022-08-07T12:59:25.188Z,4.03
2022-08-07T13:04:49.176Z,4.25
2022-08-07T13:10:39.182Z,4.25
2022-08-07T13:16:05.076Z,4.00
2022-08-07T13:21:37.146Z,3.93
2022-08-07T13:26:56.510Z,4.10
2022-08-07T13:32:31.610Z,3.88
2022-08-07T13:38:05.227Z,3.75
2022-08-07T13:43:11.943Z,3.40
2022-08-07T13:48:27.877Z,3.60
2022-08-07T13:53:59.709Z,3.95
2022-08-07T13:59:05.806Z,3.65
2022-08-07T14:04:16.187Z,3.33
2022-08-07T14:10:02.091Z,2.88
2022-08-07T14:14:53.408Z,3.53
2022-08-07T14:20:42.482Z,2.60
2022-08-07T14:25:26.241Z,3.13
2022-08-07T14:30:33.304Z,3.45
2022-08-07T14:35:44.745Z,3.47
2022-08-07T14:40:49.421Z,2.78
2022-08-07T14:45:54.961Z,3.20
2022-08-07T14:50:54.891Z,4.07
2022-08-07T14:55:56.240Z,3.17
2022-08-07T15:00:55.042Z,3.63
2022-08-07T15:05:55.054Z,3.60
2022-08-07T15:11:18.174Z,4.53
2022-08-07T15:17:11.488Z,9.57
2022-08-07T15:22:31.059Z,3.85
2022-08-07T15:27:34.401Z,7.40
2022-08-07T15:32:51.165Z,3.58
2022-08-07T15:38:18.138Z,4.50
2022-08-07T15:49:03.761Z,3.20
2022-08-07T15:54:15.907Z,3.50
2022-08-07T15:59:39.001Z,2.60
2022-08-07T16:05:17.146Z,3.33
2022-08-07T16:10:28.640Z,2.70
2022-08-07T16:15:58.802Z,3.00
2022-08-07T16:22:02.184Z,3.80
2022-08-07T16:27:17.950Z,2.78
2022-08-07T16:32:36.066Z,3.35
2022-08-07T16:38:44.109Z,3.03
2022-08-07T16:44:47.325Z,3.47
2022-08-07T16:50:36.247Z,3.63
2022-08-07T16:56:11.658Z,3.90
2022-08-07T17:01:34.362Z,4.18
2022-08-07T17:07:09.127Z,4.77
2022-08-07T17:12:37.714Z,3.83
2022-08-07T17:17:54.353Z,4.38
2022-08-07T17:23:32.423Z,3.80
2022-08-07T17:28:38.386Z,3.80
2022-08-07T17:34:18.081Z,4.72
2022-08-07T17:39:16.033Z,4.00
2022-08-07T17:44:41.407Z,3.80
2022-08-07T17:50:00.441Z,3.75
2022-08-07T17:55:12.694Z,4.30
2022-08-07T18:00:32.838Z,4.32
2022-08-07T18:06:01.574Z,3.60
2022-08-07T18:12:16.403Z,3.53
2022-08-07T18:17:08.176Z,3.85
2022-08-07T18:22:26.562Z,4.15
2022-08-07T18:27:44.840Z,4.40
2022-08-07T18:33:18.067Z,4.82
2022-08-07T18:38:55.628Z,4.40
2022-08-07T18:44:14.478Z,5.32
2022-08-07T18:50:30.306Z,4.40
2022-08-07T19:02:19.886Z,4.05
2022-08-07T19:07:08.410Z,3.58
2022-08-07T19:18:58.706Z,4.07
2022-08-07T19:24:04.262Z,3.78
2022-08-07T19:31:01.711Z,3.60
2022-08-07T20:01:52.822Z,3.78
2022-08-07T20:07:46.216Z,4.65
2022-08-07T20:12:49.388Z,3.20
2022-08-07T20:18:01.456Z,3.78
2022-08-07T20:23:23.318Z,4.35
2022-08-07T20:28:29.762Z,4.03
2022-08-07T20:33:36.811Z,5.05
2022-08-07T20:39:00.075Z,5.18
2022-08-07T20:44:10.371Z,4.72
2022-08-07T20:49:57.940Z,4.93
2022-08-07T20:54:37.177Z,5.25
2022-08-07T21:00:06.258Z,5.75
2022-08-07T21:05:16.269Z,5.97
2022-08-07T21:10:29.546Z,6.40
2022-08-07T21:15:58.145Z,5.80
2022-08-07T21:20:56.597Z,5.30
2022-08-07T21:25:58.758Z,5.93
2022-08-07T21:31:08.011Z,6.55
2022-08-07T21:36:31.205Z,6.72
2022-08-07T21:42:37.593Z,5.40
2022-08-07T21:47:38.662Z,6.57
2022-08-07T21:53:07.755Z,5.70
2022-08-07T21:58:33.217Z,5.80
2022-08-07T22:03:47.614Z,5.60
2022-08-07T22:08:54.499Z,5.53
2022-08-07T22:13:58.232Z,5.43
2022-08-07T22:19:04.413Z,5.70
2022-08-07T22:24:21.966Z,5.53
2022-08-07T22:29:59.984Z,5.10
2022-08-07T22:35:03.977Z,5.95
2022-08-07T22:46:46.974Z,6.03
2022-08-07T22:52:06.853Z,5.07
2022-08-07T22:57:59.112Z,5.57
2022-08-07T23:03:16.320Z,6.22
2022-08-07T23:08:23.970Z,6.30
2022-08-07T23:13:48.371Z,5.82
2022-08-07T23:20:02.913Z,6.30
2022-08-07T23:25:18.889Z,6.07
2022-08-07T23:30:35.497Z,6.28
2022-08-07T23:35:38.712Z,5.60
2022-08-07T23:40:53.400Z,5.30
2022-08-07T23:46:23.605Z,5.10
2022-08-07T23:52:59.451Z,5.13
2022-08-07T23:57:05.069Z,5.53
